createdAt,value
2018-04-24T00:00:51.335Z,7.80
2018-04-24T00:03:18.851Z,8.30
2018-04-24T00:05:46.367Z,7.83
2018-04-24T00:08:13.915Z,8.90
2018-04-24T00:10:41.433Z,7.43
2018-04-24T00:13:09.744Z,7.60
2018-04-24T00:15:38.101Z,7.63
2018-04-24T00:18:05.643Z,7.30
2018-04-24T00:20:33.167Z,7.77
2018-04-24T00:23:00.753Z,7.07
2018-04-24T00:25:28.387Z,8.43
2018-04-24T00:27:55.931Z,8.57
2018-04-24T00:30:23.474Z,8.03
2018-04-24T00:32:51.028Z,7.50
2018-04-24T00:35:18.669Z,7.90
2018-04-24T00:37:46.219Z,6.90
2018-04-24T00:40:13.744Z,7.83
2018-04-24T00:42:41.290Z,7.03
2018-04-24T00:45:08.811Z,8.00
2018-04-24T00:47:36.357Z,6.90
2018-04-24T00:50:03.879Z,7.23
2018-04-24T00:52:32.300Z,7.20
2018-04-24T00:54:59.870Z,7.17
2018-04-24T00:57:27.482Z,7.67
2018-04-24T00:59:55.008Z,7.03
2018-04-24T01:02:22.584Z,7.27
2018-04-24T01:04:50.110Z,7.20
2018-04-24T01:07:17.663Z,6.90
2018-04-24T01:09:45.183Z,7.30
2018-04-24T01:12:12.730Z,8.00
2018-04-24T01:14:40.250Z,8.37
2018-04-24T01:17:08.572Z,7.07
2018-04-24T01:19:36.100Z,7.43
2018-04-24T01:22:03.767Z,8.20
2018-04-24T01:24:31.292Z,7.50
2018-04-24T01:26:58.847Z,6.80
2018-04-24T01:29:27.158Z,7.55
2018-04-24T01:31:55.499Z,7.30
2018-04-24T01:34:23.023Z,7.00
2018-04-24T01:36:50.543Z,7.87
2018-04-24T01:39:24.106Z,7.50
2018-04-24T01:41:51.631Z,6.87
2018-04-24T01:44:19.941Z,8.60
2018-04-24T01:46:47.509Z,8.63
2018-04-24T01:49:15.051Z,6.90
2018-04-24T01:51:42.576Z,8.83
2018-04-24T01:54:10.120Z,7.90
2018-04-24T01:56:38.450Z,7.50
2018-04-24T01:59:06.072Z,7.60
2018-04-24T02:01:34.356Z,7.47
2018-04-24T02:04:01.907Z,7.50
2018-04-24T02:06:29.419Z,6.80
2018-04-24T02:08:56.953Z,7.30
2018-04-24T02:11:24.478Z,6.53
2018-04-24T02:13:52.014Z,7.07
2018-04-24T02:16:19.530Z,7.13
2018-04-24T02:18:47.099Z,7.27
2018-04-24T02:21:14.616Z,7.10
2018-04-24T02:23:42.172Z,7.22
2018-04-24T02:26:09.694Z,7.17
2018-04-24T02:28:37.234Z,6.77
2018-04-24T02:31:05.520Z,6.80
2018-04-24T02:33:33.055Z,7.47
2018-04-24T02:36:00.625Z,6.30
2018-04-24T02:38:28.998Z,6.80
2018-04-24T02:40:56.510Z,6.67
2018-04-24T02:43:24.051Z,5.80
2018-04-24T02:45:51.623Z,6.40
2018-04-24T02:48:19.172Z,6.03
2018-04-24T02:50:46.712Z,6.50
2018-04-24T02:53:14.251Z,6.23
2018-04-24T02:55:41.772Z,6.87
2018-04-24T02:58:09.323Z,6.40
2018-04-24T03:00:36.886Z,7.03
2018-04-24T03:03:04.427Z,6.40
2018-04-24T03:05:31.942Z,6.00
2018-04-24T03:07:59.455Z,6.33
2018-04-24T03:10:26.996Z,7.10
2018-04-24T03:12:54.519Z,6.20
2018-04-24T03:15:22.071Z,6.13
2018-04-24T03:17:49.594Z,6.97
2018-04-24T03:20:17.141Z,6.40
2018-04-24T03:22:44.653Z,6.23
2018-04-24T03:25:12.222Z,6.70
2018-04-24T03:27:39.739Z,5.97
2018-04-24T03:30:07.321Z,6.90
2018-04-24T03:32:34.873Z,6.60
2018-04-24T03:35:02.436Z,7.33
2018-04-24T03:37:30.148Z,6.53
2018-04-24T03:39:57.688Z,7.07
2018-04-24T03:42:25.210Z,7.77
2018-04-24T03:44:52.789Z,8.53
2018-04-24T03:47:20.306Z,8.20
2018-04-24T03:49:47.862Z,7.60
2018-04-24T03:52:15.402Z,10.10
2018-04-24T03:54:42.959Z,7.63
2018-04-24T03:57:10.489Z,8.50
2018-04-24T03:59:38.026Z,7.50
2018-04-24T04:02:05.569Z,6.70
2018-04-24T04:04:33.119Z,7.13
2018-04-24T04:07:00.639Z,6.70
2018-04-24T04:09:30.611Z,6.90
2018-04-24T04:11:58.131Z,8.87
2018-04-24T04:14:25.776Z,7.43
2018-04-24T04:16:53.328Z,7.50
2018-04-24T04:19:32.778Z,7.10
2018-04-24T04:22:12.323Z,7.27
2018-04-24T04:24:45.303Z,7.53
2018-04-24T04:27:12.889Z,6.47
2018-04-24T04:29:40.430Z,7.03
2018-04-24T04:32:08.917Z,6.37
2018-04-24T04:34:36.478Z,7.00
2018-04-24T04:37:03.990Z,6.93
2018-04-24T04:39:31.539Z,14.03
2018-04-24T04:41:59.050Z,8.83
2018-04-24T04:44:26.588Z,6.77
2018-04-24T04:46:54.129Z,7.73
2018-04-24T04:49:22.406Z,6.50
2018-04-24T04:51:49.947Z,7.13
2018-04-24T04:54:17.464Z,7.33
2018-04-24T04:56:45.878Z,6.53
2018-04-24T04:59:13.427Z,6.77
2018-04-24T05:01:40.964Z,7.80
2018-04-24T05:04:08.483Z,7.57
2018-04-24T05:06:36.026Z,6.87
2018-04-24T05:09:03.554Z,7.37
2018-04-24T05:11:31.949Z,6.97
2018-04-24T05:13:59.461Z,7.47
2018-04-24T05:16:27.774Z,7.53
2018-04-24T05:18:55.308Z,6.77
2018-04-24T05:21:22.852Z,6.37
2018-04-24T05:23:50.381Z,6.70
2018-04-24T05:26:17.927Z,7.10
2018-04-24T05:28:45.462Z,7.20
2018-04-24T05:31:13.035Z,7.33
2018-04-24T05:33:40.577Z,7.07
2018-04-24T05:36:08.148Z,7.00
2018-04-24T05:38:35.670Z,7.57
2018-04-24T05:41:03.315Z,8.30
2018-04-24T05:43:30.831Z,7.97
2018-04-24T05:45:58.362Z,7.83
2018-04-24T05:48:26.655Z,7.70
2018-04-24T05:50:54.214Z,7.33
2018-04-24T05:53:21.729Z,7.30
2018-04-24T05:55:49.274Z,7.83
2018-04-24T05:58:16.797Z,7.40
2018-04-24T06:00:45.130Z,8.53
2018-04-24T06:03:12.658Z,8.30
2018-04-24T06:05:40.195Z,7.40
2018-04-24T06:08:07.727Z,7.30
2018-04-24T06:10:35.323Z,8.53
2018-04-24T06:13:03.627Z,7.80
2018-04-24T06:15:31.159Z,7.77
2018-04-24T06:17:58.698Z,7.60
2018-04-24T06:20:26.239Z,8.47
2018-04-24T06:22:53.787Z,8.00
2018-04-24T06:25:21.306Z,10.20
2018-04-24T06:27:49.614Z,8.50
2018-04-24T06:30:17.143Z,9.47
2018-04-24T06:32:44.691Z,8.87
2018-04-24T06:35:12.207Z,8.30
2018-04-24T06:37:40.955Z,9.80
2018-04-24T06:40:08.575Z,9.13
2018-04-24T06:42:36.115Z,9.27
2018-04-24T06:45:03.635Z,8.50
2018-04-24T06:47:31.514Z,8.43
2018-04-24T06:49:59.062Z,8.80
2018-04-24T06:52:26.606Z,8.43
2018-04-24T06:54:54.119Z,8.50
2018-04-24T06:57:22.691Z,8.47
2018-04-24T06:59:50.212Z,9.67
2018-04-24T07:02:18.624Z,9.67
2018-04-24T07:04:46.148Z,8.63
2018-04-24T07:07:13.686Z,8.40
2018-04-24T07:09:41.207Z,8.77
2018-04-24T07:12:09.531Z,9.93
2018-04-24T07:14:37.111Z,10.30
2018-04-24T07:17:05.455Z,10.33
2018-04-24T07:19:32.983Z,10.73
2018-04-24T07:22:00.615Z,12.87
2018-04-24T07:24:28.186Z,13.17
2018-04-24T07:26:57.225Z,16.13
2018-04-24T07:29:24.794Z,15.43
2018-04-24T07:31:52.323Z,15.87
2018-04-24T07:34:19.874Z,15.80
2018-04-24T07:36:47.390Z,15.97
2018-04-24T07:39:14.967Z,16.17
2018-04-24T07:41:42.490Z,16.53
2018-04-24T07:44:10.035Z,17.80
2018-04-24T07:46:37.605Z,18.47
2018-04-24T07:49:05.156Z,19.70
2018-04-24T07:51:33.576Z,18.62
2018-04-24T07:54:01.145Z,19.20
2018-04-24T07:56:28.662Z,18.03
2018-04-24T07:58:56.239Z,18.03
2018-04-24T08:01:23.768Z,17.20
2018-04-24T08:03:51.308Z,17.40
2018-04-24T08:06:18.838Z,18.43
2018-04-24T08:08:46.383Z,17.90
2018-04-24T08:11:13.911Z,19.73
2018-04-24T08:13:42.329Z,20.37
2018-04-24T08:16:09.879Z,19.87
2018-04-24T08:18:37.590Z,30.03
2018-04-24T08:21:05.111Z,25.10
2018-04-24T08:23:34.230Z,24.93
2018-04-24T08:26:01.770Z,15.47
2018-04-24T08:28:29.292Z,21.17
2018-04-24T08:30:57.594Z,20.67
2018-04-24T08:33:25.134Z,18.97
2018-04-24T08:35:52.859Z,19.70
2018-04-24T08:38:20.379Z,21.60
2018-04-24T08:40:48.697Z,19.50
2018-04-24T08:43:16.223Z,17.80
2018-04-24T08:45:43.771Z,15.53
2018-04-24T08:48:11.298Z,16.13
2018-04-24T08:50:38.870Z,15.13
2018-04-24T08:53:06.395Z,13.50
2018-04-24T08:55:35.295Z,12.88
2018-04-24T08:58:02.835Z,11.63
2018-04-24T09:00:30.378Z,12.60
2018-04-24T09:02:57.895Z,12.67
2018-04-24T09:05:25.529Z,13.50
2018-04-24T09:07:53.124Z,14.60
2018-04-24T09:10:20.670Z,14.07
2018-04-24T09:12:48.203Z,13.40
2018-04-24T09:15:15.751Z,11.30
2018-04-24T09:17:43.279Z,10.40
2018-04-24T09:20:10.841Z,6.20
2018-04-24T09:22:38.480Z,7.60
2018-04-24T09:25:06.022Z,7.30
2018-04-24T09:27:33.538Z,7.70
2018-04-24T09:30:01.859Z,7.77
2018-04-24T09:32:29.378Z,8.10
2018-04-24T09:34:56.923Z,11.17
2018-04-24T09:37:24.468Z,8.87
2018-04-24T09:39:52.120Z,8.20
2018-04-24T09:42:19.656Z,8.13
2018-04-24T09:44:47.198Z,8.77
2018-04-24T09:47:14.950Z,9.13
2018-04-24T09:49:42.479Z,8.70
2018-04-24T09:52:10.071Z,11.20
2018-04-24T09:54:38.356Z,8.80
2018-04-24T09:57:05.907Z,9.63
2018-04-24T09:59:33.426Z,8.47
2018-04-24T10:02:01.745Z,8.80
2018-04-24T10:04:29.273Z,8.90
2018-04-24T10:06:56.835Z,8.37
2018-04-24T10:09:24.359Z,9.30
2018-04-24T10:11:51.904Z,9.23
2018-04-24T10:14:19.420Z,9.27
2018-04-24T10:16:47.745Z,9.70
2018-04-24T10:19:15.379Z,10.07
2018-04-24T10:21:42.943Z,9.53
2018-04-24T10:24:10.546Z,10.40
2018-04-24T10:26:38.096Z,7.90
2018-04-24T10:29:05.611Z,8.00
2018-04-24T10:31:33.937Z,7.57
2018-04-24T10:34:01.565Z,8.97
2018-04-24T10:36:29.214Z,8.47
2018-04-24T10:38:56.735Z,8.80
2018-04-24T10:41:24.305Z,9.47
2018-04-24T10:43:51.843Z,9.80
2018-04-24T10:46:19.492Z,10.03
2018-04-24T10:48:47.028Z,10.23
2018-04-24T10:51:14.583Z,9.20
2018-04-24T10:53:42.107Z,8.50
2018-04-24T10:56:09.658Z,8.50
2018-04-24T10:58:37.317Z,9.47
2018-04-24T11:01:04.861Z,9.80
2018-04-24T11:03:32.511Z,8.20
2018-04-24T11:06:00.052Z,9.40
2018-04-24T11:08:27.599Z,10.30
2018-04-24T11:10:55.141Z,9.73
2018-04-24T11:13:22.707Z,9.90
2018-04-24T11:15:50.227Z,10.13
2018-04-24T11:18:17.775Z,9.77
2018-04-24T11:20:45.298Z,10.43
2018-04-24T11:23:12.842Z,10.50
2018-04-24T11:25:40.545Z,10.70
2018-04-24T11:28:08.098Z,10.60
2018-04-24T11:30:36.520Z,10.70
2018-04-24T11:33:04.059Z,11.00
2018-04-24T11:35:31.578Z,11.50
2018-04-24T11:37:59.142Z,11.07
2018-04-24T11:40:26.676Z,10.30
2018-04-24T11:42:54.350Z,12.03
2018-04-24T11:45:21.862Z,11.47
2018-04-24T11:47:49.445Z,11.50
2018-04-24T11:50:17.206Z,11.63
2018-04-24T11:52:44.771Z,12.53
2018-04-24T11:55:13.062Z,11.70
2018-04-24T11:57:40.643Z,12.00
2018-04-24T12:00:08.198Z,11.80
2018-04-24T12:02:35.783Z,13.20
2018-04-24T12:05:03.318Z,11.30
2018-04-24T12:07:31.859Z,11.47
2018-04-24T12:09:59.476Z,11.00
2018-04-24T12:12:27.750Z,13.60
2018-04-24T12:14:55.279Z,10.67
2018-04-24T12:17:23.071Z,10.03
2018-04-24T12:19:51.396Z,10.00
2018-04-24T12:22:18.941Z,9.40
2018-04-24T12:24:46.498Z,10.57
2018-04-24T12:27:14.024Z,10.70
2018-04-24T12:29:41.574Z,9.80
2018-04-24T12:32:09.112Z,9.40
2018-04-24T12:34:36.768Z,9.80
2018-04-24T12:37:04.291Z,7.63
2018-04-24T12:39:31.835Z,8.70
2018-04-24T12:41:59.403Z,7.80
2018-04-24T12:44:26.967Z,7.10
2018-04-24T12:46:54.562Z,6.97
2018-04-24T12:49:22.238Z,6.73
2018-04-24T12:51:49.851Z,7.50
2018-04-24T12:54:17.343Z,7.07
2018-04-24T12:56:44.867Z,7.10
2018-04-24T12:59:12.444Z,7.40
2018-04-24T13:01:39.945Z,6.87
2018-04-24T13:04:07.486Z,7.10
2018-04-24T13:06:35.049Z,7.63
2018-04-24T13:09:02.602Z,7.90
2018-04-24T13:11:30.115Z,6.67
2018-04-24T13:13:57.663Z,7.53
2018-04-24T13:16:25.313Z,7.23
2018-04-24T13:18:53.042Z,7.43
2018-04-24T13:21:21.823Z,7.77
2018-04-24T13:23:49.367Z,9.10
2018-04-24T13:26:16.911Z,9.53
2018-04-24T13:28:44.455Z,8.73
2018-04-24T13:31:12.064Z,8.80
2018-04-24T13:33:40.514Z,9.52
2018-04-24T13:36:08.033Z,9.23
2018-04-24T13:38:35.580Z,8.50
2018-04-24T13:41:03.118Z,10.20
2018-04-24T13:43:30.655Z,10.00
2018-04-24T13:45:58.206Z,9.30
2018-04-24T13:48:25.755Z,9.57
2018-04-24T13:50:53.308Z,9.57
2018-04-24T13:53:20.823Z,8.87
2018-04-24T13:55:48.396Z,9.10
2018-04-24T13:58:16.063Z,9.47
2018-04-24T14:00:43.689Z,10.13
2018-04-24T14:03:11.209Z,9.40
2018-04-24T14:05:38.771Z,10.30
2018-04-24T14:08:06.427Z,10.00
2018-04-24T14:10:33.973Z,10.10
2018-04-24T14:13:01.499Z,9.80
2018-04-24T14:15:29.035Z,9.23
2018-04-24T14:17:56.575Z,9.70
2018-04-24T14:20:24.134Z,9.87
2018-04-24T14:22:51.660Z,9.20
2018-04-24T14:25:19.203Z,8.87
2018-04-24T14:27:46.724Z,9.40
2018-04-24T14:30:15.040Z,9.30
2018-04-24T14:32:42.584Z,8.43
2018-04-24T14:35:10.236Z,9.17
2018-04-24T14:37:37.772Z,8.83
2018-04-24T14:40:05.422Z,8.67
2018-04-24T14:42:32.943Z,9.80
2018-04-24T14:45:00.497Z,8.40
2018-04-24T14:47:28.058Z,8.50
2018-04-24T14:49:55.604Z,9.80
2018-04-24T14:52:23.126Z,8.57
2018-04-24T14:54:50.673Z,9.00
2018-04-24T14:57:18.200Z,9.80
2018-04-24T14:59:45.752Z,9.20
2018-04-24T15:02:13.269Z,9.20
2018-04-24T15:04:41.006Z,8.90
2018-04-24T15:07:08.539Z,10.07
2018-04-24T15:09:36.099Z,9.57
2018-04-24T15:12:03.620Z,9.60
2018-04-24T15:14:31.152Z,9.53
2018-04-24T15:16:58.791Z,8.70
2018-04-24T15:19:26.308Z,8.67
2018-04-24T15:21:53.855Z,9.80
2018-04-24T15:24:21.371Z,10.00
2018-04-24T15:26:49.683Z,10.77
2018-04-24T15:29:17.207Z,9.60
2018-04-24T15:31:44.753Z,10.37
2018-04-24T15:34:12.313Z,10.13
2018-04-24T15:36:39.916Z,10.27
2018-04-24T15:39:08.212Z,10.60
2018-04-24T15:41:35.800Z,11.07
2018-04-24T15:44:03.521Z,10.80
2018-04-24T15:46:31.299Z,10.60
2018-04-24T15:48:58.839Z,11.40
2018-04-24T15:51:27.179Z,10.67
2018-04-24T15:53:54.763Z,10.40
2018-04-24T15:56:22.377Z,12.03
2018-04-24T15:58:49.892Z,11.40
2018-04-24T16:01:17.440Z,10.30
2018-04-24T16:03:44.957Z,11.20
2018-04-24T16:06:13.299Z,11.03
2018-04-24T16:08:42.418Z,11.77
2018-04-24T16:11:09.999Z,10.23
2018-04-24T16:13:37.521Z,10.00
2018-04-24T16:16:05.091Z,9.47
2018-04-24T16:18:32.639Z,11.13
2018-04-24T16:21:00.178Z,9.77
2018-04-24T16:23:27.707Z,8.70
2018-04-24T16:25:55.275Z,8.10
2018-04-24T16:28:22.834Z,8.00
2018-04-24T16:30:50.375Z,8.27
2018-04-24T16:33:18.758Z,8.43
2018-04-24T16:35:47.089Z,8.03
2018-04-24T16:38:14.616Z,7.70
2018-04-24T16:40:42.150Z,7.40
2018-04-24T16:43:09.666Z,8.30
2018-04-24T16:45:37.188Z,7.57
2018-04-24T16:48:05.502Z,8.83
2018-04-24T16:50:33.065Z,7.30
2018-04-24T16:53:00.606Z,7.07
2018-04-24T16:55:28.119Z,7.37
2018-04-24T16:57:55.671Z,7.00
2018-04-24T17:00:23.297Z,6.70
2018-04-24T17:02:50.881Z,6.30
2018-04-24T17:05:18.407Z,6.63
2018-04-24T17:07:45.951Z,8.40
2018-04-24T17:10:13.509Z,7.80
2018-04-24T17:12:41.058Z,8.40
2018-04-24T17:15:08.604Z,10.30
2018-04-24T17:17:36.146Z,10.60
2018-04-24T17:20:03.735Z,9.40
2018-04-24T17:22:31.319Z,10.20
2018-04-24T17:24:58.866Z,10.13
2018-04-24T17:27:26.417Z,10.93
2018-04-24T17:29:53.939Z,9.13
2018-04-24T17:32:21.493Z,9.83
2018-04-24T17:34:49.011Z,9.43
2018-04-24T17:37:17.409Z,8.60
2018-04-24T17:39:44.858Z,9.37
2018-04-24T17:42:13.479Z,9.03
2018-04-24T17:44:42.008Z,8.97
2018-04-24T17:47:10.414Z,9.13
2018-04-24T17:49:38.133Z,13.20
2018-04-24T17:52:05.689Z,8.87
2018-04-24T17:54:33.982Z,10.27
2018-04-24T17:57:01.566Z,9.20
2018-04-24T17:59:29.087Z,9.10
2018-04-24T18:01:56.823Z,9.40
2018-04-24T18:04:24.363Z,10.60
2018-04-24T18:06:51.916Z,9.10
2018-04-24T18:09:19.430Z,11.03
2018-04-24T18:11:47.756Z,12.77
2018-04-24T18:14:15.292Z,10.43
2018-04-24T18:16:42.811Z,9.87
2018-04-24T18:19:10.367Z,11.70
2018-04-24T18:21:37.978Z,17.07
2018-04-24T18:24:05.453Z,17.90
2018-04-24T18:26:32.995Z,10.67
2018-04-24T18:29:00.557Z,9.20
2018-04-24T18:31:28.146Z,10.87
2018-04-24T18:33:56.479Z,14.50
2018-04-24T18:36:24.042Z,10.70
2018-04-24T18:38:51.606Z,9.63
2018-04-24T18:41:19.883Z,10.10
2018-04-24T18:43:48.182Z,9.80
2018-04-24T18:46:15.699Z,10.27
2018-04-24T18:48:43.248Z,9.97
2018-04-24T18:51:10.764Z,12.23
2018-04-24T18:53:39.066Z,9.90
2018-04-24T18:56:06.604Z,13.03
2018-04-24T18:58:34.158Z,18.37
2018-04-24T19:01:01.683Z,13.70
2018-04-24T19:03:29.267Z,11.00
2018-04-24T19:05:56.997Z,14.20
2018-04-24T19:08:24.850Z,10.03
2018-04-24T19:10:52.494Z,11.63
2018-04-24T19:13:20.100Z,11.40
2018-04-24T19:15:47.570Z,11.30
2018-04-24T19:18:15.337Z,13.20
2018-04-24T19:20:42.855Z,10.73
2018-04-24T19:23:10.407Z,11.10
2018-04-24T19:25:42.900Z,10.60
2018-04-24T19:28:10.529Z,10.37
2018-04-24T19:30:38.078Z,11.00
2018-04-24T19:33:05.623Z,11.20
2018-04-24T19:35:33.159Z,10.40
2018-04-24T19:38:00.918Z,11.20
2018-04-24T19:40:34.282Z,11.20
2018-04-24T19:43:01.946Z,10.37
2018-04-24T19:45:29.486Z,10.80
2018-04-24T19:47:58.337Z,14.27
2018-04-24T19:50:26.568Z,13.07
2018-04-24T19:52:54.889Z,10.83
2018-04-24T19:55:26.448Z,20.77
2018-04-24T19:57:54.007Z,10.50
2018-04-24T20:00:22.294Z,10.43
2018-04-24T20:02:49.870Z,10.50
2018-04-24T20:05:17.397Z,11.23
2018-04-24T20:07:44.921Z,10.60
2018-04-24T20:10:13.309Z,12.60
2018-04-24T20:12:40.843Z,10.87
2018-04-24T20:15:08.462Z,10.23
2018-04-24T20:17:36.820Z,10.50
2018-04-24T20:20:05.192Z,10.87
2018-04-24T20:22:33.483Z,10.63
2018-04-24T20:25:01.033Z,10.23
2018-04-24T20:27:29.448Z,10.60
2018-04-24T20:29:56.995Z,10.80
2018-04-24T20:32:24.538Z,11.10
2018-04-24T20:34:52.868Z,11.73
2018-04-24T20:37:20.503Z,11.13
2018-04-24T20:39:48.153Z,12.17
2018-04-24T20:42:15.716Z,11.73
2018-04-24T20:44:43.273Z,11.97
2018-04-24T20:47:10.833Z,11.37
2018-04-24T20:49:39.182Z,11.60
2018-04-24T20:52:06.798Z,13.93
2018-04-24T20:54:34.346Z,13.00
2018-04-24T20:57:01.903Z,11.80
2018-04-24T20:59:29.452Z,12.33
2018-04-24T21:01:57.035Z,11.93
2018-04-24T21:04:24.583Z,11.97
2018-04-24T21:06:52.931Z,11.97
2018-04-24T21:09:21.261Z,12.83
2018-04-24T21:11:48.791Z,13.50
2018-04-24T21:14:16.344Z,13.30
2018-04-24T21:16:43.891Z,13.50
2018-04-24T21:19:11.420Z,12.60
2018-04-24T21:21:38.978Z,13.40
2018-04-24T21:24:06.504Z,12.27
2018-04-24T21:26:34.074Z,12.43
2018-04-24T21:29:02.395Z,14.10
2018-04-24T21:31:29.954Z,16.93
2018-04-24T21:33:57.470Z,15.07
2018-04-24T21:36:25.014Z,14.90
2018-04-24T21:38:53.363Z,14.70
2018-04-24T21:41:21.807Z,13.77
2018-04-24T21:43:49.325Z,14.80
2018-04-24T21:46:16.875Z,14.60
2018-04-24T21:48:44.413Z,13.57
2018-04-24T21:51:12.021Z,14.23
2018-04-24T21:53:39.556Z,13.60
2018-04-24T21:56:07.871Z,13.20
2018-04-24T21:58:35.402Z,13.33
2018-04-24T22:01:03.059Z,13.53
2018-04-24T22:03:30.589Z,13.90
2018-04-24T22:05:58.150Z,18.67
2018-04-24T22:08:25.680Z,13.57
2018-04-24T22:10:53.217Z,14.37
2018-04-24T22:13:20.735Z,13.40
2018-04-24T22:15:49.041Z,14.20
2018-04-24T22:18:16.572Z,31.87
2018-04-24T22:20:44.113Z,15.33
2018-04-24T22:23:11.627Z,15.70
2018-04-24T22:25:39.939Z,14.80
2018-04-24T22:28:07.461Z,14.17
2018-04-24T22:30:35.007Z,14.63
2018-04-24T22:33:02.547Z,15.50
2018-04-24T22:35:30.110Z,15.37
2018-04-24T22:37:57.630Z,15.70
2018-04-24T22:40:25.176Z,17.10
2018-04-24T22:42:52.727Z,16.07
2018-04-24T22:45:20.247Z,16.77
2018-04-24T22:47:48.567Z,15.70
2018-04-24T22:50:16.091Z,16.00
2018-04-24T22:52:43.638Z,14.67
2018-04-24T22:55:11.290Z,16.10
2018-04-24T22:57:38.875Z,14.17
2018-04-24T23:00:07.171Z,16.07
2018-04-24T23:02:34.778Z,16.03
2018-04-24T23:05:03.072Z,15.37
2018-04-24T23:07:30.651Z,15.73
2018-04-24T23:09:57.679Z,17.77
2018-04-24T23:12:37.205Z,17.53
2018-04-24T23:15:16.510Z,18.50
2018-04-24T23:17:55.855Z,18.17
2018-04-24T23:20:22.941Z,18.67
2018-04-24T23:22:50.624Z,18.80
2018-04-24T23:25:18.372Z,18.20
2018-04-24T23:27:46.019Z,20.07
2018-04-24T23:30:13.542Z,18.97
2018-04-24T23:32:41.095Z,18.23
2018-04-24T23:35:08.650Z,18.40
2018-04-24T23:37:36.191Z,19.23
2018-04-24T23:40:03.740Z,18.73
2018-04-24T23:42:31.295Z,19.63
2018-04-24T23:44:58.842Z,18.60
2018-04-24T23:47:26.424Z,19.23
2018-04-24T23:49:54.716Z,19.60
2018-04-24T23:52:22.259Z,19.23
2018-04-24T23:54:49.778Z,20.87
2018-04-24T23:57:18.091Z,20.90
2018-04-24T23:59:45.611Z,20.03
